Time;durP1;ratioP1;P1;durP2;ratioP2;P2;SDS_P1;SDS_P2;PMS_P1;PMS_P2;Temp;Humidity;BMP_temperature;BMP_pressure;BME280_temperature;BME280_humidity;BME280_pressure;Samples;Min_cycle;Max_cycle;Signal;HPM_P1;HPM_P2
2022/10/27 00:00:17;;;;;;;;;1.25;0.50;;;;;;;;5118951;27;8788;-51
2022/10/27 00:03:02;;;;;;;;;2.25;1.00;;;;;;;;5126704;27;8786;-52
2022/10/27 00:05:47;;;;;;;;;2.25;1.75;;;;;;;;5137556;27;8774;-49
2022/10/27 00:08:30;;;;;;;;;1.25;1.25;;;;;;;;5118322;27;8800;-48
2022/10/27 00:11:15;;;;;;;;;2.00;1.75;;;;;;;;5118459;27;9551;-50
2022/10/27 00:13:59;;;;;;;;;4.75;2.75;;;;;;;;5134711;27;8759;-53
2022/10/27 00:16:47;;;;;;;;;1.00;1.00;;;;;;;;5135136;27;8781;-50
2022/10/27 00:19:31;;;;;;;;;2.50;2.00;;;;;;;;5118298;27;8800;-53
2022/10/27 00:22:17;;;;;;;;;3.25;1.75;;;;;;;;5118234;27;8780;-48
2022/10/27 00:25:01;;;;;;;;;4.50;2.00;;;;;;;;5135637;27;8778;-49
2022/10/27 00:27:45;;;;;;;;;3.50;2.75;;;;;;;;5139030;27;8786;-55
2022/10/27 00:30:30;;;;;;;;;4.25;2.75;;;;;;;;5135964;27;8774;-49
2022/10/27 00:33:14;;;;;;;;;3.50;2.00;;;;;;;;5125726;27;8928;-51
2022/10/27 00:36:06;;;;;;;;;2.00;2.00;;;;;;;;5138764;27;8785;-49
2022/10/27 00:38:57;;;;;;;;;4.50;3.25;;;;;;;;5138882;27;8774;-52
2022/10/27 00:41:42;;;;;;;;;4.75;1.75;;;;;;;;5136205;27;8773;-48
2022/10/27 00:44:29;;;;;;;;;5.00;2.00;;;;;;;;5138195;27;8774;-53
2022/10/27 00:47:18;;;;;;;;;4.75;2.00;;;;;;;;5138696;27;8806;-52
2022/10/27 00:50:08;;;;;;;;;2.75;2.75;;;;;;;;5138854;27;8782;-50
2022/10/27 00:52:59;;;;;;;;;6.00;3.75;;;;;;;;5135929;27;8790;-51
2022/10/27 00:55:43;;;;;;;;;1.75;1.75;;;;;;;;5136130;27;8778;-51
2022/10/27 00:58:28;;;;;;;;;2.25;2.00;;;;;;;;5131160;27;8817;-53
2022/10/27 01:01:12;;;;;;;;;1.00;1.00;;;;;;;;5137826;27;8759;-52
2022/10/27 01:03:57;;;;;;;;;1.50;1.25;;;;;;;;5133394;27;8778;-53
2022/10/27 01:06:41;;;;;;;;;7.50;2.00;;;;;;;;5138164;27;8798;-51
2022/10/27 01:09:26;;;;;;;;;5.00;3.00;;;;;;;;5138185;27;8766;-51
2022/10/27 01:12:10;;;;;;;;;4.00;1.75;;;;;;;;5131269;27;8781;-54
2022/10/27 01:14:55;;;;;;;;;6.50;2.25;;;;;;;;5138271;27;8731;-52
2022/10/27 01:17:52;;;;;;;;;9.00;3.50;;;;;;;;5138431;27;8790;-51
2022/10/27 01:20:55;;;;;;;;;5.00;3.75;;;;;;;;5137922;27;8774;-53
2022/10/27 01:23:51;;;;;;;;;10.25;6.50;;;;;;;;5136053;27;8802;-49
2022/10/27 01:26:35;;;;;;;;;9.75;9.00;;;;;;;;5137737;27;8786;-52
2022/10/27 01:29:20;;;;;;;;;13.50;11.75;;;;;;;;5125131;27;8773;-52
2022/10/27 01:32:22;;;;;;;;;17.00;15.25;;;;;;;;5116333;27;8792;-50
2022/10/27 01:35:29;;;;;;;;;21.75;19.00;;;;;;;;5136524;27;8778;-53
2022/10/27 01:38:26;;;;;;;;;17.00;15.25;;;;;;;;5137834;27;8798;-50
2022/10/27 01:41:14;;;;;;;;;16.75;15.25;;;;;;;;5137918;27;8766;-49
2022/10/27 01:44:03;;;;;;;;;16.00;12.00;;;;;;;;5135749;27;8770;-48
2022/10/27 01:46:48;;;;;;;;;22.00;16.50;;;;;;;;5121087;27;8820;-51
2022/10/27 01:49:36;;;;;;;;;21.75;20.50;;;;;;;;5120520;27;8843;-50
2022/10/27 01:52:39;;;;;;;;;21.25;19.50;;;;;;;;5117066;27;8780;-45
2022/10/27 01:55:26;;;;;;;;;22.25;20.25;;;;;;;;5116310;27;8797;-50
2022/10/27 01:58:26;;;;;;;;;22.00;21.25;;;;;;;;5116496;27;8796;-48
2022/10/27 02:01:19;;;;;;;;;22.50;20.25;;;;;;;;5117061;27;8812;-47
2022/10/27 02:04:13;;;;;;;;;26.50;24.50;;;;;;;;5132103;27;9581;-51
2022/10/27 02:07:00;;;;;;;;;28.75;24.75;;;;;;;;5137233;27;9593;-50
2022/10/27 02:09:50;;;;;;;;;27.50;25.75;;;;;;;;5137395;27;8778;-48
2022/10/27 02:12:35;;;;;;;;;28.50;26.00;;;;;;;;5135504;27;8794;-47
2022/10/27 02:15:24;;;;;;;;;29.75;25.75;;;;;;;;5139686;27;8786;-48
2022/10/27 02:18:15;;;;;;;;;34.00;25.25;;;;;;;;5141084;27;8786;-49
2022/10/27 02:21:01;;;;;;;;;23.00;22.00;;;;;;;;5136765;27;8785;-50
2022/10/27 02:23:45;;;;;;;;;22.50;21.75;;;;;;;;5136214;27;8785;-50
2022/10/27 02:26:51;;;;;;;;;25.50;23.25;;;;;;;;5141296;27;8778;-49
2022/10/27 02:29:46;;;;;;;;;28.75;26.75;;;;;;;;5141155;27;9668;-48
2022/10/27 02:32:31;;;;;;;;;33.25;31.00;;;;;;;;5137490;27;8798;-49
2022/10/27 02:35:16;;;;;;;;;21.75;20.25;;;;;;;;5141551;27;8789;-51
2022/10/27 02:38:00;;;;;;;;;24.25;23.50;;;;;;;;5140484;27;8825;-52
2022/10/27 02:40:45;;;;;;;;;26.50;22.00;;;;;;;;5139434;27;8782;-54
2022/10/27 02:43:29;;;;;;;;;27.75;23.00;;;;;;;;5125544;27;8901;-52
2022/10/27 02:46:14;;;;;;;;;21.00;19.00;;;;;;;;5141124;27;8786;-50
2022/10/27 02:48:58;;;;;;;;;24.50;24.00;;;;;;;;5140556;27;8806;-49
2022/10/27 02:51:42;;;;;;;;;29.25;28.25;;;;;;;;5140650;27;9685;-49
2022/10/27 02:54:27;;;;;;;;;29.50;26.75;;;;;;;;5127102;27;8789;-50
2022/10/27 02:57:11;;;;;;;;;9.75;9.75;;;;;;;;5119944;27;8804;-53
2022/10/27 02:59:56;;;;;;;;;23.50;20.00;;;;;;;;5119798;27;9556;-49
2022/10/27 03:02:40;;;;;;;;;26.75;22.50;;;;;;;;5120065;27;8804;-52
2022/10/27 03:05:25;;;;;;;;;14.00;13.00;;;;;;;;5122992;27;8805;-50
2022/10/27 03:08:09;;;;;;;;;6.25;5.25;;;;;;;;5132169;27;8786;-51
2022/10/27 03:10:53;;;;;;;;;4.00;4.00;;;;;;;;5140226;27;8789;-47
2022/10/27 03:13:38;;;;;;;;;7.50;5.75;;;;;;;;5137787;27;8798;-50
2022/10/27 03:16:22;;;;;;;;;5.00;3.25;;;;;;;;5140270;27;8778;-50
2022/10/27 03:19:06;;;;;;;;;5.50;3.00;;;;;;;;5139922;27;8809;-51
2022/10/27 03:21:51;;;;;;;;;4.00;2.75;;;;;;;;5140316;27;8774;-52
2022/10/27 03:24:35;;;;;;;;;9.75;6.75;;;;;;;;5132165;27;8808;-51
2022/10/27 03:27:19;;;;;;;;;4.00;4.00;;;;;;;;5136266;27;8790;-49
2022/10/27 03:30:04;;;;;;;;;5.00;4.25;;;;;;;;5140007;27;8910;-51
2022/10/27 03:32:49;;;;;;;;;5.00;5.00;;;;;;;;5139956;27;8782;-48
2022/10/27 03:35:33;;;;;;;;;5.25;4.50;;;;;;;;5138202;27;9592;-51
2022/10/27 03:38:18;;;;;;;;;8.75;6.50;;;;;;;;5139002;27;8972;-49
2022/10/27 03:41:02;;;;;;;;;2.00;2.00;;;;;;;;5139526;27;8801;-46
2022/10/27 03:43:46;;;;;;;;;4.75;2.75;;;;;;;;5136068;27;9667;-51
2022/10/27 03:46:31;;;;;;;;;5.25;5.25;;;;;;;;5126774;27;8798;-53
2022/10/27 03:49:15;;;;;;;;;10.25;7.00;;;;;;;;5139353;27;8802;-52
2022/10/27 03:52:00;;;;;;;;;34.00;29.75;;;;;;;;5139364;27;8790;-52
2022/10/27 03:54:44;;;;;;;;;34.50;28.25;;;;;;;;5137020;27;8766;-53
2022/10/27 03:57:28;;;;;;;;;29.50;27.75;;;;;;;;5139798;27;8793;-54
2022/10/27 04:00:13;;;;;;;;;30.25;28.50;;;;;;;;5139554;27;8774;-49
2022/10/27 04:02:57;;;;;;;;;35.00;30.00;;;;;;;;5139544;27;8770;-47
2022/10/27 04:05:42;;;;;;;;;30.50;29.50;;;;;;;;5137286;27;8782;-51
2022/10/27 04:08:26;;;;;;;;;28.00;26.25;;;;;;;;5132313;27;8778;-51
2022/10/27 04:11:11;;;;;;;;;29.25;28.25;;;;;;;;5138882;27;9537;-47
2022/10/27 04:13:55;;;;;;;;;22.00;22.00;;;;;;;;5137845;27;8774;-48
2022/10/27 04:16:39;;;;;;;;;24.75;23.00;;;;;;;;5118304;27;8788;-46
2022/10/27 04:19:24;;;;;;;;;26.75;22.50;;;;;;;;5118402;27;8933;-48
2022/10/27 04:22:08;;;;;;;;;23.50;22.50;;;;;;;;5118169;27;8789;-47
2022/10/27 04:24:52;;;;;;;;;31.25;24.50;;;;;;;;5124738;27;8770;-52
2022/10/27 04:27:37;;;;;;;;;27.00;22.00;;;;;;;;5139221;27;8790;-49
2022/10/27 04:30:21;;;;;;;;;30.50;26.75;;;;;;;;5133013;27;8922;-55
2022/10/27 04:33:05;;;;;;;;;30.50;27.75;;;;;;;;5122637;27;8792;-51
2022/10/27 04:35:50;;;;;;;;;27.50;26.25;;;;;;;;5118140;27;9727;-46
2022/10/27 04:38:34;;;;;;;;;29.25;22.75;;;;;;;;5123937;27;8816;-48
2022/10/27 04:41:18;;;;;;;;;22.75;22.25;;;;;;;;5134759;27;8806;-54
2022/10/27 04:44:03;;;;;;;;;25.75;22.75;;;;;;;;5136655;27;9723;-50
2022/10/27 04:46:47;;;;;;;;;28.25;23.25;;;;;;;;5136176;27;8793;-49
2022/10/27 04:49:32;;;;;;;;;29.50;26.50;;;;;;;;5134885;27;9968;-48
2022/10/27 04:52:16;;;;;;;;;33.50;29.50;;;;;;;;5118038;27;8801;-47
2022/10/27 04:55:01;;;;;;;;;35.00;30.25;;;;;;;;5121845;27;8798;-47
2022/10/27 04:57:45;;;;;;;;;34.25;32.00;;;;;;;;5121630;27;8839;-48
2022/10/27 05:00:29;;;;;;;;;36.50;31.75;;;;;;;;5134788;27;8743;-55
2022/10/27 05:03:14;;;;;;;;;36.25;32.00;;;;;;;;5118788;27;9712;-46
2022/10/27 05:05:58;;;;;;;;;38.75;30.00;;;;;;;;5116920;27;8930;-50
2022/10/27 05:08:43;;;;;;;;;37.25;31.25;;;;;;;;5132092;27;8806;-51
2022/10/27 05:11:27;;;;;;;;;44.25;35.75;;;;;;;;5133825;27;8778;-50
2022/10/27 05:14:11;;;;;;;;;38.00;33.50;;;;;;;;5124613;27;8778;-51
2022/10/27 05:16:56;;;;;;;;;47.50;39.25;;;;;;;;5116961;27;8785;-52
2022/10/27 05:19:40;;;;;;;;;44.00;38.25;;;;;;;;5116738;27;8808;-51
2022/10/27 05:22:24;;;;;;;;;43.00;33.00;;;;;;;;5122592;27;8784;-51
2022/10/27 05:25:09;;;;;;;;;39.00;33.75;;;;;;;;5127193;27;8782;-48
2022/10/27 05:27:53;;;;;;;;;41.75;35.50;;;;;;;;5120332;27;8781;-47
2022/10/27 05:30:37;;;;;;;;;41.25;32.25;;;;;;;;5132235;27;9600;-43
2022/10/27 05:33:22;;;;;;;;;47.25;37.75;;;;;;;;5137601;27;8781;-48
2022/10/27 05:36:07;;;;;;;;;48.50;38.25;;;;;;;;5124389;27;8796;-44
2022/10/27 05:38:51;;;;;;;;;41.75;35.50;;;;;;;;5129284;27;8782;-47
2022/10/27 05:41:35;;;;;;;;;47.50;37.25;;;;;;;;5134560;27;8750;-45
2022/10/27 05:44:19;;;;;;;;;49.00;38.75;;;;;;;;5118445;27;8792;-46
2022/10/27 05:47:04;;;;;;;;;52.50;40.50;;;;;;;;5117005;27;8769;-46
2022/10/27 05:49:49;;;;;;;;;46.50;38.50;;;;;;;;5124503;27;8785;-46
2022/10/27 05:52:33;;;;;;;;;48.00;40.50;;;;;;;;5117860;27;8780;-46
2022/10/27 05:55:17;;;;;;;;;49.50;38.75;;;;;;;;5123077;27;8780;-47
2022/10/27 05:58:03;;;;;;;;;47.75;38.00;;;;;;;;5117717;27;8824;-44
2022/10/27 06:00:47;;;;;;;;;49.25;40.00;;;;;;;;5117041;27;8764;-48
2022/10/27 06:03:31;;;;;;;;;42.00;35.50;;;;;;;;5125851;27;8906;-46
2022/10/27 06:06:16;;;;;;;;;44.75;36.75;;;;;;;;5116721;27;8772;-45
2022/10/27 06:09:00;;;;;;;;;44.75;37.50;;;;;;;;5120946;27;9500;-45
2022/10/27 06:11:45;;;;;;;;;47.50;38.75;;;;;;;;5116589;27;8875;-47
2022/10/27 06:14:29;;;;;;;;;41.00;34.25;;;;;;;;5121062;27;8765;-47
2022/10/27 06:17:13;;;;;;;;;47.00;36.50;;;;;;;;5116599;27;8903;-47
2022/10/27 06:19:58;;;;;;;;;49.50;38.00;;;;;;;;5118861;27;8788;-45
2022/10/27 06:22:44;;;;;;;;;46.00;38.25;;;;;;;;5137001;27;8766;-48
2022/10/27 06:25:29;;;;;;;;;48.75;40.00;;;;;;;;5136855;27;8770;-46
2022/10/27 06:28:13;;;;;;;;;55.00;43.75;;;;;;;;5122849;27;8777;-44
2022/10/27 06:30:58;;;;;;;;;52.00;40.25;;;;;;;;5119703;27;8784;-49
2022/10/27 06:33:42;;;;;;;;;51.00;42.25;;;;;;;;5117777;27;8757;-44
2022/10/27 06:36:26;;;;;;;;;48.75;41.00;;;;;;;;5132247;27;8773;-45
2022/10/27 06:39:11;;;;;;;;;49.75;40.25;;;;;;;;5132320;27;8790;-46
2022/10/27 06:41:55;;;;;;;;;52.25;40.50;;;;;;;;5136825;27;8778;-44
2022/10/27 06:44:40;;;;;;;;;46.50;38.00;;;;;;;;5131433;27;8781;-47
2022/10/27 06:47:24;;;;;;;;;45.50;37.75;;;;;;;;5115962;27;8784;-49
2022/10/27 06:50:09;;;;;;;;;45.50;38.25;;;;;;;;5115544;27;8773;-46
2022/10/27 06:52:53;;;;;;;;;47.50;39.50;;;;;;;;5133419;27;8778;-45
2022/10/27 06:55:37;;;;;;;;;47.75;39.50;;;;;;;;5137198;27;8761;-47
2022/10/27 06:58:22;;;;;;;;;45.75;37.50;;;;;;;;5116175;27;8801;-50
2022/10/27 07:01:06;;;;;;;;;48.75;39.50;;;;;;;;5118109;27;8753;-50
2022/10/27 07:03:51;;;;;;;;;47.25;40.25;;;;;;;;5134018;27;8765;-47
2022/10/27 07:06:35;;;;;;;;;44.50;37.75;;;;;;;;5123874;27;8790;-45
2022/10/27 07:09:19;;;;;;;;;45.50;36.75;;;;;;;;5124107;27;8773;-45
2022/10/27 07:12:04;;;;;;;;;45.00;36.50;;;;;;;;5118637;27;8914;-49
2022/10/27 07:14:48;;;;;;;;;39.75;30.50;;;;;;;;5144738;27;8778;-47
2022/10/27 07:17:33;;;;;;;;;40.25;33.50;;;;;;;;5122124;27;8800;-49
2022/10/27 07:20:17;;;;;;;;;44.50;35.25;;;;;;;;5129071;27;9631;-45
2022/10/27 07:23:02;;;;;;;;;37.75;32.00;;;;;;;;5138854;27;8886;-47
2022/10/27 07:25:47;;;;;;;;;34.25;29.75;;;;;;;;5140184;27;8797;-46
2022/10/27 07:28:32;;;;;;;;;38.25;32.00;;;;;;;;5126110;27;8781;-50
2022/10/27 07:31:16;;;;;;;;;33.25;27.25;;;;;;;;5132280;27;8788;-46
2022/10/27 07:34:01;;;;;;;;;34.25;28.50;;;;;;;;5115298;27;8785;-47
2022/10/27 07:36:45;;;;;;;;;42.25;33.25;;;;;;;;5119795;27;8796;-48
2022/10/27 07:39:31;;;;;;;;;35.75;30.75;;;;;;;;5123207;27;8812;-46
2022/10/27 07:42:16;;;;;;;;;32.00;29.25;;;;;;;;5127717;27;9007;-47
2022/10/27 07:45:01;;;;;;;;;28.50;27.25;;;;;;;;5118642;27;8773;-47
2022/10/27 07:47:47;;;;;;;;;26.00;24.50;;;;;;;;5119926;27;8804;-49
2022/10/27 07:50:34;;;;;;;;;29.75;27.00;;;;;;;;5139803;27;8746;-48
2022/10/27 07:53:18;;;;;;;;;29.25;25.50;;;;;;;;5139115;27;8770;-47
2022/10/27 07:56:03;;;;;;;;;27.75;25.75;;;;;;;;5135240;27;8774;-46
2022/10/27 07:58:48;;;;;;;;;25.25;23.75;;;;;;;;5126796;27;8800;-49
2022/10/27 08:01:32;;;;;;;;;18.75;18.00;;;;;;;;5122144;27;8766;-48
2022/10/27 08:04:16;;;;;;;;;22.00;21.00;;;;;;;;5138972;27;9529;-46
2022/10/27 08:07:01;;;;;;;;;27.25;22.50;;;;;;;;5135458;27;8790;-48
2022/10/27 08:09:45;;;;;;;;;21.50;19.00;;;;;;;;5129871;27;8781;-49
2022/10/27 08:12:30;;;;;;;;;15.75;14.50;;;;;;;;5126500;27;8780;-50
2022/10/27 08:15:14;;;;;;;;;18.50;17.00;;;;;;;;5126110;27;8757;-49
2022/10/27 08:18:01;;;;;;;;;11.50;9.50;;;;;;;;5117970;27;8813;-48
2022/10/27 08:20:46;;;;;;;;;16.25;13.25;;;;;;;;5117593;27;9575;-48
2022/10/27 08:23:30;;;;;;;;;14.50;14.25;;;;;;;;5118845;27;8769;-46
2022/10/27 08:26:14;;;;;;;;;15.75;14.00;;;;;;;;5117107;27;8756;-50
2022/10/27 08:28:58;;;;;;;;;15.50;14.50;;;;;;;;5124637;27;9407;-43
2022/10/27 08:31:43;;;;;;;;;15.50;12.75;;;;;;;;5118248;27;8777;-53
2022/10/27 08:34:27;;;;;;;;;17.50;15.50;;;;;;;;5120439;27;9621;-47
2022/10/27 08:37:11;;;;;;;;;10.50;10.50;;;;;;;;5125403;27;8774;-46
2022/10/27 08:39:56;;;;;;;;;11.25;10.00;;;;;;;;5117190;27;9572;-50
2022/10/27 08:42:51;;;;;;;;;12.50;10.50;;;;;;;;5128658;27;8781;-46
2022/10/27 08:45:44;;;;;;;;;2.75;1.50;;;;;;;;5136314;27;9597;-47
2022/10/27 08:48:30;;;;;;;;;10.00;8.75;;;;;;;;5129790;27;8820;-43
2022/10/27 08:51:16;;;;;;;;;8.00;6.75;;;;;;;;5125403;27;8765;-50
2022/10/27 08:54:00;;;;;;;;;8.75;8.00;;;;;;;;5120801;27;8773;-49
2022/10/27 08:56:45;;;;;;;;;11.25;8.50;;;;;;;;5125991;27;8766;-48
2022/10/27 08:59:30;;;;;;;;;8.75;8.25;;;;;;;;5121122;27;8808;-48
2022/10/27 09:02:50;;;;;;;;;10.25;8.75;;;;;;;;5106124;27;8792;-48
2022/10/27 09:05:40;;;;;;;;;4.50;3.50;;;;;;;;5106074;27;8789;-49
2022/10/27 09:08:31;;;;;;;;;9.25;6.25;;;;;;;;5124089;27;8764;-48
2022/10/27 09:11:26;;;;;;;;;7.75;6.25;;;;;;;;5127783;27;8774;-50
2022/10/27 09:14:33;;;;;;;;;7.00;7.00;;;;;;;;5117895;27;8792;-51
2022/10/27 09:17:28;;;;;;;;;5.25;4.00;;;;;;;;5128348;27;8812;-46
2022/10/27 09:20:51;;;;;;;;;9.50;7.25;;;;;;;;5135576;27;9533;-46
2022/10/27 09:23:37;;;;;;;;;7.25;6.50;;;;;;;;5098079;27;8808;-51
2022/10/27 09:26:25;;;;;;;;;7.50;6.75;;;;;;;;5096919;27;8785;-44
2022/10/27 09:29:17;;;;;;;;;10.25;9.25;;;;;;;;5116827;27;8782;-46
2022/10/27 09:32:06;;;;;;;;;9.50;8.75;;;;;;;;5125759;27;8784;-47
2022/10/27 09:34:51;;;;;;;;;9.00;7.25;;;;;;;;5120326;27;8773;-50
2022/10/27 09:37:39;;;;;;;;;8.00;8.00;;;;;;;;5120513;27;9270;-50
2022/10/27 09:40:24;;;;;;;;;5.50;5.50;;;;;;;;5123658;27;8792;-49
2022/10/27 09:43:09;;;;;;;;;8.50;8.50;;;;;;;;5128647;27;8832;-47
2022/10/27 09:46:00;;;;;;;;;6.50;6.50;;;;;;;;5117884;27;8777;-46
2022/10/27 09:48:44;;;;;;;;;7.50;7.25;;;;;;;;5127193;27;8810;-47
2022/10/27 09:51:49;;;;;;;;;8.25;7.00;;;;;;;;5134602;27;8776;-45
2022/10/27 09:54:37;;;;;;;;;10.50;9.00;;;;;;;;5129835;27;8774;-49
2022/10/27 09:57:26;;;;;;;;;11.00;9.00;;;;;;;;5120714;27;8793;-53
2022/10/27 10:00:20;;;;;;;;;19.25;17.25;;;;;;;;5135326;27;8778;-48
2022/10/27 10:03:18;;;;;;;;;7.50;7.00;;;;;;;;5116397;27;8812;-45
2022/10/27 10:06:05;;;;;;;;;2.00;2.00;;;;;;;;5115896;27;8812;-48
2022/10/27 10:08:49;;;;;;;;;5.25;4.75;;;;;;;;5125717;27;8804;-47
2022/10/27 10:11:33;;;;;;;;;8.25;6.00;;;;;;;;5131903;27;8798;-47
2022/10/27 10:14:22;;;;;;;;;6.50;6.25;;;;;;;;5121602;27;8790;-49
2022/10/27 10:17:19;;;;;;;;;7.25;6.50;;;;;;;;5122191;27;9524;-51
2022/10/27 10:20:04;;;;;;;;;8.00;6.50;;;;;;;;5137210;27;8794;-50
2022/10/27 10:22:50;;;;;;;;;7.50;7.00;;;;;;;;5120082;27;8779;-47
2022/10/27 10:25:41;;;;;;;;;7.25;5.50;;;;;;;;5137385;27;8782;-45
2022/10/27 10:28:28;;;;;;;;;2.25;2.25;;;;;;;;5136964;27;8790;-50
2022/10/27 10:31:14;;;;;;;;;11.50;9.25;;;;;;;;5137577;27;8775;-51
2022/10/27 10:34:03;;;;;;;;;6.50;6.00;;;;;;;;5132652;27;8793;-47
2022/10/27 10:36:49;;;;;;;;;7.75;6.25;;;;;;;;5117732;27;9548;-47
2022/10/27 10:39:36;;;;;;;;;8.00;5.25;;;;;;;;5137670;27;8790;-47
2022/10/27 10:42:20;;;;;;;;;9.25;8.00;;;;;;;;5140900;27;8781;-48
2022/10/27 10:45:09;;;;;;;;;12.25;10.00;;;;;;;;5140849;27;8793;-49
2022/10/27 10:47:56;;;;;;;;;7.00;5.25;;;;;;;;5136529;27;8798;-51
2022/10/27 10:50:47;;;;;;;;;5.75;5.75;;;;;;;;5132844;27;8766;-46
2022/10/27 10:53:51;;;;;;;;;10.00;10.00;;;;;;;;5121040;27;8792;-49
2022/10/27 10:56:36;;;;;;;;;7.25;6.50;;;;;;;;5123373;27;8784;-50
2022/10/27 10:59:26;;;;;;;;;10.75;9.75;;;;;;;;5127127;27;9426;-48
2022/10/27 11:02:17;;;;;;;;;10.75;10.25;;;;;;;;5125057;27;8753;-49
2022/10/27 11:05:11;;;;;;;;;11.25;8.75;;;;;;;;5126251;27;8782;-50
2022/10/27 11:07:55;;;;;;;;;8.50;8.50;;;;;;;;5119081;27;8792;-49
2022/10/27 11:10:44;;;;;;;;;7.50;7.50;;;;;;;;5124468;27;8801;-50
2022/10/27 11:13:37;;;;;;;;;8.75;6.50;;;;;;;;5126197;27;8796;-48
2022/10/27 11:16:22;;;;;;;;;6.00;6.00;;;;;;;;5124875;27;8777;-48
2022/10/27 11:19:09;;;;;;;;;7.25;7.00;;;;;;;;5119594;27;8820;-48
2022/10/27 11:21:53;;;;;;;;;6.75;5.25;;;;;;;;5119863;27;8848;-50
2022/10/27 11:25:07;;;;;;;;;6.75;5.25;;;;;;;;5119424;27;8784;-49
2022/10/27 11:28:03;;;;;;;;;6.75;6.00;;;;;;;;5113550;27;9572;-47
2022/10/27 11:31:10;;;;;;;;;11.00;5.50;;;;;;;;5131530;27;8794;-47
2022/10/27 11:34:01;;;;;;;;;9.25;8.00;;;;;;;;5122815;27;8804;-49
2022/10/27 11:37:06;;;;;;;;;7.25;6.75;;;;;;;;5118714;27;8777;-47
2022/10/27 11:39:51;;;;;;;;;6.25;6.25;;;;;;;;5123398;27;8806;-46
2022/10/27 11:42:44;;;;;;;;;7.75;7.50;;;;;;;;5128301;27;8789;-48
2022/10/27 11:45:32;;;;;;;;;8.00;7.00;;;;;;;;5121571;27;8792;-46
2022/10/27 11:48:21;;;;;;;;;7.25;6.25;;;;;;;;5117525;27;8812;-47
2022/10/27 11:51:10;;;;;;;;;10.50;8.00;;;;;;;;5119056;27;8788;-47
2022/10/27 11:53:55;;;;;;;;;10.00;10.00;;;;;;;;5119064;27;9548;-48
2022/10/27 11:56:51;;;;;;;;;12.25;8.50;;;;;;;;5118667;27;8784;-47
2022/10/27 11:59:58;;;;;;;;;8.25;8.00;;;;;;;;5120486;27;8801;-48
2022/10/27 12:03:01;;;;;;;;;7.00;7.00;;;;;;;;5119502;27;8820;-49
2022/10/27 12:05:57;;;;;;;;;5.75;5.25;;;;;;;;5123895;27;8778;-45
2022/10/27 12:09:03;;;;;;;;;10.50;9.25;;;;;;;;5138724;27;8794;-47
2022/10/27 12:11:50;;;;;;;;;12.00;8.50;;;;;;;;5134521;27;8790;-51
2022/10/27 12:14:52;;;;;;;;;11.00;8.50;;;;;;;;5131505;27;8789;-50
2022/10/27 12:17:46;;;;;;;;;6.50;5.25;;;;;;;;5139116;27;8790;-48
2022/10/27 12:20:41;;;;;;;;;10.50;9.00;;;;;;;;5138892;27;8778;-48
2022/10/27 12:23:26;;;;;;;;;8.75;7.75;;;;;;;;5125082;27;8830;-48
2022/10/27 12:26:20;;;;;;;;;6.25;6.25;;;;;;;;5117637;27;8816;-48
2022/10/27 12:29:06;;;;;;;;;8.00;6.00;;;;;;;;5118171;27;8801;-48
2022/10/27 12:31:53;;;;;;;;;10.50;8.50;;;;;;;;5118550;27;8796;-49
2022/10/27 12:34:40;;;;;;;;;8.00;8.00;;;;;;;;5118031;27;8801;-49
2022/10/27 12:37:29;;;;;;;;;10.75;8.75;;;;;;;;5117795;27;8781;-48
2022/10/27 12:40:17;;;;;;;;;6.00;6.00;;;;;;;;5117925;27;8780;-51
2022/10/27 12:43:20;;;;;;;;;8.25;7.00;;;;;;;;5127050;27;8845;-48
2022/10/27 12:46:28;;;;;;;;;8.25;7.00;;;;;;;;5134155;27;8794;-49
2022/10/27 12:49:30;;;;;;;;;7.50;6.25;;;;;;;;5127544;27;8826;-49
2022/10/27 12:52:20;;;;;;;;;7.75;7.00;;;;;;;;5124579;27;8797;-47
2022/10/27 12:55:10;;;;;;;;;7.75;4.25;;;;;;;;5117988;27;8785;-47
2022/10/27 12:58:02;;;;;;;;;6.75;6.75;;;;;;;;5117900;27;8809;-47
2022/10/27 13:00:51;;;;;;;;;9.75;7.25;;;;;;;;5117170;27;8804;-48
2022/10/27 13:03:44;;;;;;;;;7.25;5.50;;;;;;;;5117323;27;8788;-47
2022/10/27 13:06:31;;;;;;;;;6.75;6.75;;;;;;;;5117051;27;9563;-49
2022/10/27 13:09:34;;;;;;;;;6.00;4.25;;;;;;;;5118091;27;8792;-48
2022/10/27 13:12:36;;;;;;;;;10.00;7.00;;;;;;;;5117522;27;8784;-48
2022/10/27 13:15:34;;;;;;;;;5.50;5.00;;;;;;;;5116843;27;8793;-45
2022/10/27 13:18:24;;;;;;;;;3.25;3.25;;;;;;;;5116303;27;8832;-47
2022/10/27 13:21:25;;;;;;;;;7.25;6.25;;;;;;;;5134420;27;9490;-46
2022/10/27 13:24:20;;;;;;;;;5.00;4.00;;;;;;;;5133095;27;8786;-49
2022/10/27 13:27:13;;;;;;;;;8.75;6.75;;;;;;;;5131777;27;8727;-45
2022/10/27 13:30:23;;;;;;;;;5.00;5.00;;;;;;;;5134088;27;8924;-47
2022/10/27 13:33:27;;;;;;;;;5.00;3.75;;;;;;;;5129005;27;8794;-50
2022/10/27 13:36:15;;;;;;;;;3.75;3.75;;;;;;;;5113599;27;8946;-48
2022/10/27 13:39:15;;;;;;;;;7.75;4.50;;;;;;;;5130543;27;8782;-48
2022/10/27 13:42:02;;;;;;;;;5.75;5.75;;;;;;;;5122102;27;8781;-47
2022/10/27 13:44:46;;;;;;;;;6.00;4.50;;;;;;;;5117356;27;8780;-46
2022/10/27 13:47:31;;;;;;;;;8.25;4.25;;;;;;;;5116880;27;8815;-49
2022/10/27 13:50:31;;;;;;;;;4.50;4.50;;;;;;;;5121760;27;8766;-49
2022/10/27 13:53:18;;;;;;;;;4.50;4.25;;;;;;;;5134575;27;8821;-49
2022/10/27 13:56:08;;;;;;;;;5.50;5.50;;;;;;;;5137582;27;8797;-48
2022/10/27 13:59:03;;;;;;;;;4.75;4.25;;;;;;;;5137645;27;8810;-49
2022/10/27 14:01:55;;;;;;;;;5.00;5.00;;;;;;;;5137694;27;9613;-46
2022/10/27 14:04:55;;;;;;;;;7.75;5.00;;;;;;;;5118702;27;8788;-49
2022/10/27 14:07:39;;;;;;;;;4.75;4.75;;;;;;;;5134762;27;8770;-47
2022/10/27 14:10:24;;;;;;;;;6.50;5.00;;;;;;;;5118363;27;8777;-49
2022/10/27 14:13:17;;;;;;;;;6.50;4.50;;;;;;;;5130755;27;8797;-49
2022/10/27 14:16:02;;;;;;;;;5.25;2.00;;;;;;;;5121031;27;8781;-47
2022/10/27 14:18:57;;;;;;;;;11.00;5.50;;;;;;;;5122182;27;8790;-49
2022/10/27 14:21:44;;;;;;;;;6.00;4.00;;;;;;;;5136407;27;8778;-47
2022/10/27 14:24:35;;;;;;;;;4.00;4.00;;;;;;;;5126491;27;8819;-49
2022/10/27 14:27:20;;;;;;;;;3.25;3.25;;;;;;;;5120913;27;10205;-48
2022/10/27 14:30:06;;;;;;;;;7.75;4.75;;;;;;;;5123969;27;8782;-49
2022/10/27 15:20:20;;;;;;;;;7.75;6.50;;;;;;;;4355055;32;51227;-50
2022/10/27 15:23:04;;;;;;;;;8.25;7.50;;;;;;;;5097188;27;51020;-53
2022/10/27 15:25:52;;;;;;;;;6.75;5.25;;;;;;;;5088612;27;51226;-48
2022/10/27 15:28:38;;;;;;;;;13.25;6.75;;;;;;;;5107610;27;51238;-48
2022/10/27 15:31:23;;;;;;;;;8.75;7.00;;;;;;;;5104892;27;51262;-48
2022/10/27 15:34:25;;;;;;;;;5.25;4.50;;;;;;;;5100924;27;51191;-48
2022/10/27 15:37:31;;;;;;;;;3.50;2.00;;;;;;;;5097496;27;51347;-48
2022/10/27 15:40:21;;;;;;;;;4.00;3.00;;;;;;;;5110158;27;51551;-46
2022/10/27 15:43:20;;;;;;;;;4.00;2.50;;;;;;;;5110037;27;51412;-47
2022/10/27 15:46:16;;;;;;;;;2.75;1.00;;;;;;;;5097817;27;51211;-47
2022/10/27 15:49:00;;;;;;;;;4.75;3.50;;;;;;;;5108435;27;51128;-46
2022/10/27 15:51:45;;;;;;;;;2.75;1.75;;;;;;;;5107132;27;51313;-47
2022/10/27 15:54:29;;;;;;;;;3.75;1.75;;;;;;;;5110419;27;51079;-47
2022/10/27 15:57:34;;;;;;;;;2.25;2.25;;;;;;;;5097155;27;51099;-48
2022/10/27 16:00:21;;;;;;;;;3.00;2.25;;;;;;;;5105120;27;51365;-46
2022/10/27 16:03:25;;;;;;;;;3.00;0.25;;;;;;;;5116572;27;51195;-46
2022/10/27 16:06:31;;;;;;;;;2.75;1.75;;;;;;;;5096352;27;51588;-47
2022/10/27 16:09:35;;;;;;;;;2.25;2.25;;;;;;;;5108710;27;51491;-46
2022/10/27 16:12:20;;;;;;;;;3.25;1.50;;;;;;;;5099070;27;51654;-49
2022/10/27 16:15:06;;;;;;;;;3.75;2.25;;;;;;;;5109971;27;51252;-48
2022/10/27 16:17:59;;;;;;;;;2.25;2.25;;;;;;;;5104513;27;51106;-47
2022/10/27 16:20:44;;;;;;;;;1.50;1.50;;;;;;;;5092939;27;51489;-46
2022/10/27 16:23:28;;;;;;;;;2.75;1.25;;;;;;;;5082129;27;51304;-46
2022/10/27 16:26:13;;;;;;;;;4.50;3.25;;;;;;;;5082609;27;51380;-46
2022/10/27 16:28:58;;;;;;;;;3.25;3.25;;;;;;;;5083068;27;50960;-49
2022/10/27 16:31:43;;;;;;;;;4.00;3.00;;;;;;;;5082325;27;51419;-46
2022/10/27 16:34:28;;;;;;;;;4.25;3.25;;;;;;;;5085396;27;51343;-46
2022/10/27 16:37:22;;;;;;;;;2.75;2.00;;;;;;;;5090030;27;51193;-46
2022/10/27 16:40:16;;;;;;;;;5.00;2.00;;;;;;;;5086684;27;51166;-48
2022/10/27 16:43:02;;;;;;;;;3.50;1.50;;;;;;;;5084862;27;51431;-45
2022/10/27 16:45:46;;;;;;;;;3.25;3.00;;;;;;;;5088263;27;51587;-47
2022/10/27 16:48:31;;;;;;;;;3.75;3.75;;;;;;;;5081615;27;51202;-47
2022/10/27 16:51:16;;;;;;;;;1.75;1.75;;;;;;;;5081430;27;51059;-45
2022/10/27 16:54:00;;;;;;;;;5.25;2.25;;;;;;;;5089883;27;51423;-48
2022/10/27 16:56:44;;;;;;;;;3.00;3.00;;;;;;;;5087650;27;51484;-50
2022/10/27 16:59:29;;;;;;;;;5.25;3.50;;;;;;;;5081610;27;51535;-45
2022/10/27 17:02:13;;;;;;;;;4.00;2.75;;;;;;;;5083295;27;51131;-46
2022/10/27 17:04:58;;;;;;;;;5.25;3.50;;;;;;;;5090864;27;51073;-51
2022/10/27 17:07:42;;;;;;;;;5.00;5.00;;;;;;;;5083028;27;51225;-45
2022/10/27 17:10:26;;;;;;;;;3.00;3.00;;;;;;;;5086116;27;51156;-48
2022/10/27 17:13:11;;;;;;;;;5.75;4.00;;;;;;;;5093928;27;51364;-47
2022/10/27 17:15:59;;;;;;;;;3.50;3.00;;;;;;;;5092373;27;51031;-46
2022/10/27 17:18:46;;;;;;;;;2.00;2.00;;;;;;;;5099828;27;51132;-45
2022/10/27 17:21:30;;;;;;;;;32.50;29.50;;;;;;;;5094296;27;51081;-48
2022/10/27 17:24:15;;;;;;;;;110.00;98.25;;;;;;;;5081118;27;51146;-47
2022/10/27 17:26:59;;;;;;;;;162.25;143.00;;;;;;;;5083779;27;51174;-48
2022/10/27 17:29:43;;;;;;;;;56.75;46.00;;;;;;;;5089533;27;51165;-53
2022/10/27 17:32:28;;;;;;;;;231.75;204.75;;;;;;;;5092659;27;51548;-54
2022/10/27 17:35:13;;;;;;;;;76.75;66.75;;;;;;;;5084809;27;51069;-55